Time;durP1;ratioP1;P1;durP2;ratioP2;P2;SDS_P1;SDS_P2;PMS_P1;PMS_P2;Temp;Humidity;BMP_temperature;BMP_pressure;BME280_temperature;BME280_humidity;BME280_pressure;Samples;Min_cycle;Max_cycle;Signal;HPM_P1;HPM_P2
2021/08/03 00:00:19;;;;;;;5.30;2.15;;;15.00;99.90;;;;;;2087519;28;20524;-65
2021/08/03 00:01:22;;;;;;;6.78;2.22;;;15.10;99.90;;;;;;2087255;28;20029;-63
2021/08/03 00:02:24;;;;;;;5.60;2.40;;;15.10;99.90;;;;;;2086441;28;20526;-63
2021/08/03 00:03:40;;;;;;;8.07;2.33;;;15.00;99.90;;;;;;2086737;28;20037;-63
2021/08/03 00:04:42;;;;;;;3.97;2.00;;;15.10;99.90;;;;;;2090496;28;20033;-63
2021/08/03 00:05:48;;;;;;;3.80;2.08;;;15.10;99.90;;;;;;2092397;28;20032;-63
2021/08/03 00:06:56;;;;;;;7.82;3.33;;;15.10;99.90;;;;;;2085038;28;20028;-63
2021/08/03 00:08:06;;;;;;;7.03;2.20;;;15.10;99.90;;;;;;2078439;28;20025;-63
2021/08/03 00:09:08;;;;;;;7.93;2.28;;;15.10;99.90;;;;;;2101707;28;20020;-63
2021/08/03 00:10:09;;;;;;;7.88;2.45;;;15.00;99.90;;;;;;2102749;28;20539;-63
2021/08/03 00:11:10;;;;;;;7.13;2.10;;;15.00;99.90;;;;;;2086438;28;20027;-63
2021/08/03 00:12:15;;;;;;;7.82;2.67;;;15.00;99.90;;;;;;2083094;28;20068;-63
2021/08/03 00:13:16;;;;;;;10.02;2.45;;;15.00;99.90;;;;;;2081719;28;20033;-63
2021/08/03 00:14:17;;;;;;;7.85;2.40;;;15.00;99.90;;;;;;2080454;28;20021;-64
2021/08/03 00:15:20;;;;;;;4.18;2.28;;;14.90;99.90;;;;;;2081345;28;20029;-63
2021/08/03 00:16:22;;;;;;;4.75;2.40;;;14.90;99.90;;;;;;2075844;28;20068;-64
2021/08/03 00:17:24;;;;;;;8.50;2.38;;;14.90;99.90;;;;;;2079498;28;20033;-63
2021/08/03 00:18:25;;;;;;;5.07;2.00;;;14.90;99.90;;;;;;2080014;28;20609;-63
2021/08/03 00:19:26;;;;;;;5.03;2.40;;;14.90;99.90;;;;;;2074080;28;20057;-63
2021/08/03 00:20:27;;;;;;;8.13;2.30;;;14.90;99.90;;;;;;2075829;28;20096;-64
2021/08/03 00:21:28;;;;;;;6.70;2.63;;;14.90;99.90;;;;;;2077164;28;20033;-63
2021/08/03 00:22:30;;;;;;;6.90;2.00;;;14.80;99.90;;;;;;2080848;28;20045;-63
2021/08/03 00:23:31;;;;;;;6.15;2.38;;;14.80;99.90;;;;;;2082154;28;20025;-63
2021/08/03 00:24:33;;;;;;;8.60;2.37;;;14.80;99.90;;;;;;2081339;28;20025;-64
2021/08/03 00:25:34;;;;;;;6.20;2.00;;;14.90;99.90;;;;;;2081337;28;20294;-63
2021/08/03 00:26:37;;;;;;;5.10;2.05;;;15.00;99.90;;;;;;2080151;28;20084;-63
2021/08/03 00:27:38;;;;;;;6.28;2.33;;;15.00;99.90;;;;;;2072576;28;20060;-63
2021/08/03 00:28:39;;;;;;;6.40;2.30;;;15.00;99.90;;;;;;2079002;28;20029;-63
2021/08/03 00:29:39;;;;;;;5.15;2.15;;;15.10;99.90;;;;;;2080446;28;20556;-63
2021/08/03 00:30:42;;;;;;;9.98;2.47;;;15.10;99.90;;;;;;2080842;28;20072;-63
2021/08/03 00:31:43;;;;;;;5.90;2.33;;;15.10;99.90;;;;;;2080139;28;20845;-63
2021/08/03 00:32:46;;;;;;;5.72;2.40;;;15.10;99.90;;;;;;2081119;28;20049;-63
2021/08/03 00:33:49;;;;;;;7.40;2.30;;;15.00;99.90;;;;;;2082780;28;20018;-63
2021/08/03 00:34:50;;;;;;;5.32;2.38;;;15.00;99.90;;;;;;2078662;28;20106;-63
2021/08/03 00:35:50;;;;;;;5.68;2.42;;;15.00;99.90;;;;;;2077876;28;20056;-63
2021/08/03 00:36:51;;;;;;;9.73;2.30;;;15.00;99.90;;;;;;2076454;28;20029;-63
2021/08/03 00:37:52;;;;;;;8.10;2.13;;;15.00;99.90;;;;;;2081389;28;20544;-63
2021/08/03 00:38:54;;;;;;;5.63;2.03;;;15.00;99.90;;;;;;2080980;28;20025;-63
2021/08/03 00:39:54;;;;;;;8.05;2.53;;;15.00;99.90;;;;;;2080816;28;20104;-63
2021/08/03 00:41:00;;;;;;;6.65;2.40;;;14.90;99.90;;;;;;2077978;28;20658;-63
2021/08/03 00:42:03;;;;;;;4.75;1.90;;;15.00;99.90;;;;;;2079208;28;20063;-63
2021/08/03 00:43:04;;;;;;;7.10;2.20;;;15.00;99.90;;;;;;2081007;28;20109;-63
2021/08/03 00:44:05;;;;;;;4.65;2.25;;;14.90;99.90;;;;;;2081365;28;20021;-63
2021/08/03 00:45:06;;;;;;;6.75;2.30;;;15.00;99.90;;;;;;2080979;28;20017;-63
2021/08/03 00:46:07;;;;;;;5.50;2.33;;;15.00;99.90;;;;;;2081142;28;20100;-63
2021/08/03 00:47:08;;;;;;;6.53;2.50;;;15.00;99.90;;;;;;2080781;28;20025;-63
2021/08/03 00:48:09;;;;;;;11.23;2.72;;;15.10;99.90;;;;;;2077312;28;20025;-63
2021/08/03 00:49:10;;;;;;;11.55;2.35;;;15.10;99.90;;;;;;2073662;28;20061;-63
2021/08/03 00:50:11;;;;;;;6.97;2.42;;;15.00;99.90;;;;;;2076283;28;20025;-63
2021/08/03 00:51:12;;;;;;;9.05;2.40;;;15.00;99.90;;;;;;2081463;28;20026;-63
2021/08/03 00:52:14;;;;;;;6.72;1.95;;;15.10;99.90;;;;;;2080953;28;20029;-63
2021/08/03 00:53:15;;;;;;;8.63;2.50;;;15.10;99.90;;;;;;2080033;28;20037;-63
2021/08/03 00:54:16;;;;;;;7.38;2.22;;;15.10;99.90;;;;;;2080701;28;20041;-63
2021/08/03 00:55:17;;;;;;;5.47;2.10;;;15.10;99.90;;;;;;2074351;28;20038;-63
2021/08/03 00:56:17;;;;;;;8.63;2.33;;;15.10;99.90;;;;;;2077232;28;20025;-63
2021/08/03 00:57:18;;;;;;;8.60;2.83;;;15.10;99.90;;;;;;2075228;28;20029;-63
2021/08/03 00:58:19;;;;;;;7.78;2.92;;;15.10;99.90;;;;;;2077278;28;20026;-63
2021/08/03 00:59:20;;;;;;;6.40;2.28;;;15.20;99.90;;;;;;2079889;28;20061;-63
2021/08/03 01:00:21;;;;;;;4.85;2.10;;;15.10;99.90;;;;;;2080798;28;20547;-63
2021/08/03 01:01:21;;;;;;;8.07;2.70;;;15.10;99.90;;;;;;2080987;28;20105;-63
2021/08/03 01:02:22;;;;;;;6.07;2.30;;;15.10;99.90;;;;;;2075995;28;20038;-63
2021/08/03 01:03:23;;;;;;;6.43;2.50;;;15.10;99.90;;;;;;2073149;28;20674;-63
2021/08/03 01:04:24;;;;;;;7.57;2.40;;;15.10;99.90;;;;;;2080144;28;20074;-63
2021/08/03 01:05:29;;;;;;;5.57;2.33;;;15.10;99.90;;;;;;2077851;28;20609;-63
2021/08/03 01:06:39;;;;;;;8.27;2.30;;;15.10;99.90;;;;;;2073000;28;20498;-63
2021/08/03 01:07:55;;;;;;;4.40;2.28;;;15.10;99.90;;;;;;2077656;28;20207;-63
2021/08/03 01:09:02;;;;;;;3.92;2.30;;;15.10;99.90;;;;;;2073914;28;20028;-63
2021/08/03 01:10:41;;;;;;;4.07;2.20;;;15.10;99.90;;;;;;2078436;28;20025;-63
2021/08/03 01:11:58;;;;;;;10.93;3.08;;;15.20;99.90;;;;;;2075881;28;20030;-63
2021/08/03 01:12:59;;;;;;;5.60;2.45;;;15.20;99.90;;;;;;2077764;28;20026;-62
2021/08/03 01:14:39;;;;;;;5.32;2.35;;;15.20;99.90;;;;;;2080818;28;20511;-63
2021/08/03 01:15:50;;;;;;;8.40;2.50;;;15.20;99.90;;;;;;2080680;28;20554;-61
2021/08/03 01:16:58;;;;;;;3.88;2.20;;;15.10;99.90;;;;;;2076384;28;20053;-62
2021/08/03 01:18:20;;;;;;;4.43;2.10;;;15.10;99.90;;;;;;2077016;28;20018;-62
2021/08/03 01:19:50;;;;;;;5.60;2.60;;;15.10;99.90;;;;;;2078835;28;20025;-62
2021/08/03 01:21:12;;;;;;;5.03;2.13;;;15.10;99.90;;;;;;2072517;28;20034;-63
2021/08/03 01:22:16;;;;;;;6.65;2.17;;;15.00;99.90;;;;;;2074390;28;20087;-62
2021/08/03 01:23:16;;;;;;;9.63;2.58;;;15.10;99.90;;;;;;2076236;28;20029;-62
2021/08/03 01:24:42;;;;;;;7.00;2.33;;;15.10;99.90;;;;;;2078335;28;20018;-62
2021/08/03 01:26:08;;;;;;;4.60;2.45;;;15.10;99.90;;;;;;2072348;28;20512;-62
2021/08/03 01:27:12;;;;;;;8.85;2.65;;;15.10;99.90;;;;;;2079321;28;20493;-62
2021/08/03 01:28:25;;;;;;;7.60;2.50;;;15.10;99.90;;;;;;2080406;28;20045;-63
2021/08/03 01:29:27;;;;;;;8.55;2.50;;;15.20;99.90;;;;;;2076364;28;20068;-62
2021/08/03 01:30:28;;;;;;;8.88;2.42;;;15.20;99.90;;;;;;2075845;28;20021;-62
2021/08/03 01:31:33;;;;;;;7.80;2.60;;;15.20;99.90;;;;;;2075638;28;20072;-62
2021/08/03 01:32:40;;;;;;;5.47;2.53;;;15.30;99.90;;;;;;2078292;28;20032;-62
2021/08/03 01:33:45;;;;;;;7.80;2.90;;;15.30;99.90;;;;;;2076143;28;20072;-62
2021/08/03 01:34:47;;;;;;;5.57;2.67;;;15.30;99.90;;;;;;2074357;28;20022;-62
2021/08/03 01:35:50;;;;;;;8.52;2.50;;;15.20;99.90;;;;;;2079573;28;20621;-62
2021/08/03 01:36:53;;;;;;;6.47;2.53;;;15.20;99.90;;;;;;2077385;28;20530;-62
2021/08/03 01:37:58;;;;;;;6.78;2.65;;;15.20;99.90;;;;;;2081136;28;20105;-62
2021/08/03 01:38:59;;;;;;;7.60;2.67;;;15.30;99.90;;;;;;2080309;28;20477;-63
2021/08/03 01:40:05;;;;;;;3.83;2.30;;;15.30;99.90;;;;;;2079124;28;20005;-62
2021/08/03 01:41:07;;;;;;;8.05;2.80;;;15.30;99.90;;;;;;2080052;28;20021;-63
2021/08/03 01:42:10;;;;;;;7.43;2.50;;;15.30;99.90;;;;;;2080450;28;20021;-63
2021/08/03 01:43:11;;;;;;;7.40;2.38;;;15.30;99.90;;;;;;2076510;28;20021;-64
2021/08/03 01:44:13;;;;;;;6.22;2.20;;;15.40;99.90;;;;;;2078368;28;20025;-63
2021/08/03 01:45:16;;;;;;;8.20;2.70;;;15.30;99.90;;;;;;2078617;28;20017;-62
2021/08/03 01:46:18;;;;;;;6.13;2.53;;;15.40;99.90;;;;;;2076728;28;20382;-62
2021/08/03 01:47:22;;;;;;;7.53;2.42;;;15.30;99.90;;;;;;2078851;28;20044;-63
2021/08/03 01:48:26;;;;;;;5.40;2.70;;;15.30;99.90;;;;;;2079817;28;20024;-63
2021/08/03 01:49:28;;;;;;;6.75;2.63;;;15.30;99.90;;;;;;2072401;28;20030;-63
2021/08/03 01:50:29;;;;;;;6.72;2.40;;;15.30;99.90;;;;;;2079367;28;20026;-63
2021/08/03 01:51:31;;;;;;;3.70;2.30;;;15.20;99.90;;;;;;2081081;28;20072;-63
2021/08/03 01:52:33;;;;;;;8.60;2.65;;;15.30;99.90;;;;;;2080606;28;20053;-62
2021/08/03 01:53:34;;;;;;;;;;;15.30;99.90;;;;;;2081217;28;20029;-63
2021/08/03 01:54:36;;;;;;;7.10;2.90;;;15.30;99.90;;;;;;2072948;28;19945;-63
2021/08/03 01:55:37;;;;;;;10.38;2.67;;;15.30;99.90;;;;;;2077020;28;20473;-62
2021/08/03 01:56:40;;;;;;;8.07;2.38;;;15.30;99.90;;;;;;2073645;28;20725;-63
2021/08/03 01:57:43;;;;;;;9.70;2.70;;;15.30;99.90;;;;;;2077203;28;20135;-63
2021/08/03 01:58:44;;;;;;;4.72;2.80;;;15.30;99.90;;;;;;2079927;28;20013;-62
2021/08/03 01:59:46;;;;;;;7.38;2.85;;;15.30;99.90;;;;;;2078129;28;20021;-63
2021/08/03 02:00:48;;;;;;;7.25;2.38;;;15.30;99.90;;;;;;2073533;28;20061;-63
2021/08/03 02:01:52;;;;;;;8.88;2.80;;;15.30;99.90;;;;;;2075461;28;20042;-63
2021/08/03 02:02:53;;;;;;;6.43;2.53;;;15.30;99.90;;;;;;2079920;28;20028;-63
2021/08/03 02:03:55;;;;;;;6.30;2.17;;;15.30;99.90;;;;;;2079489;28;20014;-63
2021/08/03 02:04:57;;;;;;;8.07;2.40;;;15.30;99.90;;;;;;2079936;28;20032;-63
2021/08/03 02:05:59;;;;;;;7.35;2.50;;;15.30;99.90;;;;;;2079466;28;20072;-63
2021/08/03 02:07:00;;;;;;;7.93;2.70;;;15.30;99.90;;;;;;2080650;28;20030;-62
2021/08/03 02:08:00;;;;;;;5.43;2.40;;;15.30;99.90;;;;;;2071828;28;20033;-62
2021/08/03 02:09:02;;;;;;;8.88;2.28;;;15.40;99.90;;;;;;2075714;28;20101;-63
2021/08/03 02:10:03;;;;;;;5.50;2.20;;;15.30;99.90;;;;;;2074614;28;20021;-63
2021/08/03 02:11:05;;;;;;;10.32;2.58;;;15.40;99.90;;;;;;2077829;28;20439;-63
2021/08/03 02:12:06;;;;;;;4.38;2.20;;;15.40;99.90;;;;;;2066216;28;20053;-63
2021/08/03 02:13:07;;;;;;;7.45;2.10;;;15.50;99.90;;;;;;2071358;28;20022;-63
2021/08/03 02:14:08;;;;;;;4.00;2.30;;;15.60;99.90;;;;;;2078339;28;20484;-63
2021/08/03 02:15:09;;;;;;;4.10;2.10;;;15.60;99.90;;;;;;2079849;28;20033;-62
2021/08/03 02:16:10;;;;;;;5.97;2.63;;;15.60;99.90;;;;;;2076748;28;20034;-62
2021/08/03 02:17:22;;;;;;;5.13;2.58;;;15.60;99.90;;;;;;2070913;28;20293;-62
2021/08/03 02:18:22;;;;;;;7.35;2.72;;;15.70;99.90;;;;;;2078925;28;20109;-63
2021/08/03 02:19:23;;;;;;;6.03;2.28;;;15.70;99.90;;;;;;2080068;28;20029;-63
2021/08/03 02:20:24;;;;;;;5.47;2.60;;;15.70;99.90;;;;;;2079819;28;20112;-63
2021/08/03 02:21:25;;;;;;;5.78;2.63;;;15.70;99.90;;;;;;2077554;28;20096;-63
2021/08/03 02:22:26;;;;;;;5.35;2.53;;;15.70;99.90;;;;;;2072523;28;20014;-63
2021/08/03 02:23:26;;;;;;;6.93;2.20;;;15.80;99.90;;;;;;2078862;28;20432;-63
2021/08/03 02:24:27;;;;;;;7.35;2.33;;;15.80;99.90;;;;;;2079968;28;20444;-63
2021/08/03 02:25:28;;;;;;;9.23;2.60;;;15.80;99.90;;;;;;2080471;28;20026;-63
2021/08/03 02:26:28;;;;;;;9.25;2.70;;;15.80;99.90;;;;;;2078065;28;20075;-63
2021/08/03 02:27:29;;;;;;;7.00;2.80;;;15.80;99.90;;;;;;2072168;28;20018;-63
2021/08/03 02:28:29;;;;;;;10.13;2.88;;;15.90;99.90;;;;;;2079870;28;20049;-63
2021/08/03 02:29:31;;;;;;;5.93;2.80;;;15.90;99.90;;;;;;2080155;28;20053;-63
2021/08/03 02:30:33;;;;;;;5.45;2.80;;;15.80;99.90;;;;;;2078681;28;20028;-63
2021/08/03 02:31:46;;;;;;;6.65;2.60;;;15.90;99.90;;;;;;2074967;28;20062;-63
2021/08/03 02:33:07;;;;;;;4.35;2.85;;;15.90;99.90;;;;;;2080441;28;20053;-62
2021/08/03 02:34:29;;;;;;;7.30;2.80;;;15.90;99.90;;;;;;2081057;28;20021;-63
2021/08/03 02:35:52;;;;;;;8.00;2.80;;;15.90;99.90;;;;;;2074703;28;20156;-63
2021/08/03 02:36:58;;;;;;;8.60;2.60;;;15.90;99.90;;;;;;2076956;28;20108;-62
2021/08/03 02:38:03;;;;;;;7.78;2.63;;;15.80;99.90;;;;;;2080209;28;20105;-63
2021/08/03 02:39:05;;;;;;;10.98;2.58;;;15.90;99.90;;;;;;2080457;28;20063;-62
2021/08/03 02:40:08;;;;;;;8.48;2.55;;;15.90;99.90;;;;;;2076096;28;20539;-65
2021/08/03 02:41:09;;;;;;;8.13;2.80;;;15.90;99.90;;;;;;2080094;28;20033;-63
2021/08/03 02:42:11;;;;;;;4.10;2.50;;;15.90;99.90;;;;;;2076833;28;20033;-63
2021/08/03 02:43:15;;;;;;;11.98;3.33;;;15.90;99.90;;;;;;2071659;28;20528;-63
2021/08/03 02:44:18;;;;;;;6.43;2.85;;;15.90;99.90;;;;;;2071599;28;20076;-66
2021/08/03 02:45:20;;;;;;;8.25;2.85;;;15.90;99.90;;;;;;2076034;28;20010;-63
2021/08/03 02:46:23;;;;;;;6.65;2.85;;;15.90;99.90;;;;;;2080590;28;20060;-63
2021/08/03 02:47:27;;;;;;;7.25;2.97;;;15.90;99.90;;;;;;2079229;28;20026;-63
2021/08/03 02:48:31;;;;;;;6.35;2.85;;;15.90;99.90;;;;;;2078988;28;20025;-63
2021/08/03 02:49:50;;;;;;;5.53;2.88;;;15.90;99.90;;;;;;2076038;28;20045;-63
2021/08/03 02:50:51;;;;;;;8.57;3.03;;;15.90;99.90;;;;;;2076642;28;20105;-63
2021/08/03 02:51:52;;;;;;;11.60;2.83;;;15.90;99.90;;;;;;2075640;28;20030;-63
2021/08/03 02:52:55;;;;;;;6.90;2.97;;;15.80;99.90;;;;;;2074741;28;20261;-63
2021/08/03 02:53:56;;;;;;;8.60;3.00;;;15.80;99.90;;;;;;2073365;28;20037;-63
2021/08/03 02:55:03;;;;;;;9.10;3.17;;;15.70;99.90;;;;;;2074850;28;20021;-63
2021/08/03 02:56:10;;;;;;;14.50;3.88;;;15.70;99.90;;;;;;2076797;28;20079;-63
2021/08/03 02:57:12;;;;;;;8.82;3.28;;;15.60;99.90;;;;;;2075868;28;20021;-63
2021/08/03 02:58:21;;;;;;;7.25;2.90;;;15.60;99.90;;;;;;2075848;28;20045;-63
2021/08/03 02:59:25;;;;;;;7.00;2.65;;;15.50;99.90;;;;;;2080081;28;20071;-63
2021/08/03 03:00:28;;;;;;;8.50;2.92;;;15.40;99.90;;;;;;2080079;28;20029;-63
2021/08/03 03:01:30;;;;;;;5.55;3.10;;;15.40;99.90;;;;;;2079777;28;20029;-63
2021/08/03 03:02:37;;;;;;;8.63;3.60;;;15.40;99.90;;;;;;2080537;28;20113;-63
2021/08/03 03:03:49;;;;;;;9.52;3.08;;;15.40;99.90;;;;;;2079941;28;20020;-62
2021/08/03 03:04:59;;;;;;;7.45;2.60;;;15.30;99.90;;;;;;2074497;28;20489;-63
2021/08/03 03:06:03;;;;;;;5.57;2.85;;;15.30;99.90;;;;;;2075063;28;20259;-63
2021/08/03 03:07:18;;;;;;;5.90;2.80;;;15.30;99.90;;;;;;2072246;28;20026;-63
2021/08/03 03:08:23;;;;;;;8.13;2.97;;;15.30;99.90;;;;;;2075920;28;20028;-62
2021/08/03 03:09:28;;;;;;;6.75;2.80;;;15.30;99.90;;;;;;2078604;28;20032;-63
2021/08/03 03:10:31;;;;;;;7.75;2.92;;;15.30;99.90;;;;;;2079867;28;20013;-63
2021/08/03 03:11:36;;;;;;;10.90;3.22;;;15.40;99.90;;;;;;2075913;28;20030;-63
2021/08/03 03:12:37;;;;;;;11.90;2.97;;;15.30;99.90;;;;;;2078258;28;20022;-63
2021/08/03 03:13:51;;;;;;;9.15;2.88;;;15.30;99.90;;;;;;2075424;28;20033;-63
2021/08/03 03:14:56;;;;;;;9.88;3.28;;;15.30;99.90;;;;;;2075381;28;20022;-63
2021/08/03 03:15:59;;;;;;;5.85;3.03;;;15.30;99.90;;;;;;2075676;28;20587;-63
2021/08/03 03:17:02;;;;;;;6.90;3.00;;;15.30;99.90;;;;;;2071761;28;20025;-63
2021/08/03 03:18:04;;;;;;;8.15;3.10;;;15.40;99.90;;;;;;2075883;28;20029;-63
2021/08/03 03:19:05;;;;;;;6.50;3.03;;;15.30;99.90;;;;;;2074426;28;20034;-63
2021/08/03 03:20:07;;;;;;;11.75;3.28;;;15.40;99.90;;;;;;2079649;28;20032;-62
2021/08/03 03:21:09;;;;;;;12.10;3.13;;;15.40;99.90;;;;;;2076116;28;20019;-63
2021/08/03 03:22:11;;;;;;;13.63;4.10;;;15.40;99.90;;;;;;2075515;28;20034;-63
2021/08/03 03:23:15;;;;;;;10.45;3.30;;;15.40;99.90;;;;;;2079555;28;20045;-63
2021/08/03 03:24:17;;;;;;;5.03;2.80;;;15.50;99.90;;;;;;2079853;28;20022;-63
2021/08/03 03:25:22;;;;;;;9.48;2.90;;;15.50;99.90;;;;;;2076948;28;20091;-63
2021/08/03 03:26:35;;;;;;;9.40;2.92;;;15.40;99.90;;;;;;2077793;28;20061;-63
2021/08/03 03:27:35;;;;;;;;;;;15.40;99.90;;;;;;2080560;28;20599;-63
2021/08/03 03:28:39;;;;;;;9.20;3.42;;;15.40;99.90;;;;;;2080270;28;19909;-63
2021/08/03 03:29:41;;;;;;;9.15;3.00;;;15.40;99.90;;;;;;2078948;28;20030;-63
2021/08/03 03:30:43;;;;;;;7.30;2.90;;;15.40;99.90;;;;;;2077361;28;20022;-63
2021/08/03 03:31:47;;;;;;;8.10;3.20;;;15.40;99.90;;;;;;2078171;28;20068;-63
2021/08/03 03:32:48;;;;;;;13.57;3.15;;;15.40;99.90;;;;;;2072789;28;20033;-63
2021/08/03 03:33:53;;;;;;;8.70;3.20;;;15.40;99.90;;;;;;2080001;28;20056;-62
2021/08/03 03:34:54;;;;;;;9.02;2.97;;;15.40;99.90;;;;;;2074135;28;20084;-63
2021/08/03 03:35:59;;;;;;;8.68;3.00;;;15.40;99.90;;;;;;2076325;28;20033;-63
2021/08/03 03:37:00;;;;;;;6.90;2.63;;;15.40;99.90;;;;;;2070546;28;20038;-63
2021/08/03 03:38:02;;;;;;;12.93;2.88;;;15.50;99.90;;;;;;2073343;28;20029;-63
2021/08/03 03:39:04;;;;;;;8.95;2.88;;;15.50;99.90;;;;;;2075614;28;20026;-63
2021/08/03 03:40:06;;;;;;;8.93;2.80;;;15.50;99.90;;;;;;2073390;28;20468;-63
2021/08/03 03:41:07;;;;;;;9.85;3.05;;;15.50;99.90;;;;;;2073164;28;20044;-63
2021/08/03 03:42:08;;;;;;;10.00;3.60;;;15.50;99.90;;;;;;2075853;28;20021;-63
2021/08/03 03:43:09;;;;;;;11.18;3.35;;;15.50;99.90;;;;;;2078883;28;20100;-63
2021/08/03 03:44:10;;;;;;;9.80;3.17;;;15.50;99.90;;;;;;2075539;28;20030;-62
2021/08/03 03:45:12;;;;;;;7.15;2.90;;;15.50;99.90;;;;;;2079855;28;20244;-62
2021/08/03 03:46:15;;;;;;;10.73;3.60;;;15.50;99.90;;;;;;2079889;28;20109;-63
2021/08/03 03:47:30;;;;;;;10.57;3.00;;;15.50;99.90;;;;;;2078811;28;20092;-63
2021/08/03 03:48:35;;;;;;;9.32;2.65;;;15.50;99.90;;;;;;2077006;28;21133;-62
2021/08/03 03:49:41;;;;;;;14.82;3.65;;;15.50;99.90;;;;;;2080933;28;20506;-63
2021/08/03 03:50:47;;;;;;;9.07;3.00;;;15.50;99.90;;;;;;2080193;28;20171;-62
2021/08/03 03:51:48;;;;;;;6.80;2.90;;;15.50;99.90;;;;;;2080369;28;20087;-63
2021/08/03 03:52:59;;;;;;;8.75;2.95;;;15.60;99.90;;;;;;2081872;28;20085;-63
2021/08/03 03:54:05;;;;;;;13.30;3.42;;;15.60;99.90;;;;;;2078256;28;20037;-63
2021/08/03 03:55:08;;;;;;;11.02;3.13;;;15.60;99.90;;;;;;2080105;28;20026;-63
2021/08/03 03:56:10;;;;;;;12.38;3.45;;;15.60;99.90;;;;;;2073663;28;20018;-63
2021/08/03 03:57:13;;;;;;;;;;;15.60;99.90;;;;;;2080441;28;20037;-63
2021/08/03 03:58:15;;;;;;;12.05;3.33;;;15.60;99.90;;;;;;2081584;28;19905;-63
2021/08/03 03:59:19;;;;;;;13.23;2.55;;;15.60;99.90;;;;;;2081568;28;20017;-63
2021/08/03 04:00:20;;;;;;;8.23;2.88;;;15.70;99.90;;;;;;2080489;28;20508;-63
2021/08/03 04:01:24;;;;;;;10.38;3.50;;;15.70;99.90;;;;;;2080868;28;20037;-63
2021/08/03 04:02:28;;;;;;;8.30;3.00;;;15.70;99.90;;;;;;2079333;28;20053;-63
2021/08/03 04:03:30;;;;;;;7.22;3.03;;;15.60;99.90;;;;;;2078120;28;20017;-63
2021/08/03 04:04:33;;;;;;;11.32;3.15;;;15.70;99.90;;;;;;2080755;28;20066;-63
2021/08/03 04:05:40;;;;;;;8.85;3.05;;;15.70;99.90;;;;;;2080105;28;20025;-63
2021/08/03 04:06:41;;;;;;;12.82;3.38;;;15.70;99.90;;;;;;2077088;28;20045;-63
2021/08/03 04:07:49;;;;;;;11.40;2.70;;;15.70;99.90;;;;;;2080939;28;20428;-63
2021/08/03 04:08:50;;;;;;;4.93;2.70;;;15.70;99.90;;;;;;2081482;28;20025;-63
2021/08/03 04:10:07;;;;;;;7.05;3.03;;;15.70;99.90;;;;;;2076939;28;20602;-63
2021/08/03 04:11:13;;;;;;;7.95;3.40;;;15.70;99.90;;;;;;2077730;28;20523;-63
2021/08/03 04:12:14;;;;;;;10.35;3.03;;;15.60;99.90;;;;;;2080407;28;20056;-63
2021/08/03 04:13:15;;;;;;;13.68;2.90;;;15.60;99.90;;;;;;2081683;28;20021;-63
2021/08/03 04:14:25;;;;;;;8.65;3.30;;;15.60;99.90;;;;;;2080949;28;20100;-63
2021/08/03 04:15:26;;;;;;;9.38;2.90;;;15.60;99.90;;;;;;2078522;28;20028;-63
2021/08/03 04:16:26;;;;;;;9.40;2.95;;;15.60;99.90;;;;;;2081864;28;20030;-63
2021/08/03 04:17:27;;;;;;;9.63;2.92;;;15.60;99.90;;;;;;2080337;28;20045;-62
2021/08/03 04:18:28;;;;;;;8.10;3.10;;;15.60;99.90;;;;;;2074885;28;20061;-63
2021/08/03 04:19:28;;;;;;;8.55;3.10;;;15.60;99.90;;;;;;2075064;28;20025;-62
2021/08/03 04:20:29;;;;;;;9.52;3.35;;;15.60;99.90;;;;;;2081023;28;20101;-63
2021/08/03 04:21:30;;;;;;;7.32;3.17;;;15.60;99.90;;;;;;2081486;28;20029;-63
2021/08/03 04:22:30;;;;;;;8.32;3.20;;;15.60;99.90;;;;;;2081380;28;20545;-63
2021/08/03 04:23:31;;;;;;;10.48;3.50;;;15.60;99.90;;;;;;2077337;28;20062;-63
2021/08/03 04:24:32;;;;;;;9.02;3.08;;;15.60;99.90;;;;;;2078891;28;20701;-63
2021/08/03 04:25:33;;;;;;;10.38;3.10;;;15.60;99.90;;;;;;2076131;28;20022;-63
2021/08/03 04:26:34;;;;;;;11.40;3.13;;;15.60;99.90;;;;;;2075989;28;20030;-63
2021/08/03 04:27:35;;;;;;;8.63;3.35;;;15.60;99.90;;;;;;2079300;28;20330;-63
2021/08/03 04:28:36;;;;;;;8.60;3.50;;;15.60;99.90;;;;;;2077329;28;20418;-63
2021/08/03 04:29:36;;;;;;;5.53;3.00;;;15.70;99.90;;;;;;2076573;28;20300;-63
2021/08/03 04:30:37;;;;;;;8.15;3.10;;;15.70;99.90;;;;;;2079429;28;20021;-63
2021/08/03 04:31:38;;;;;;;11.60;3.53;;;15.70;99.90;;;;;;2079757;28;20022;-64
2021/08/03 04:32:39;;;;;;;11.23;3.15;;;15.80;99.90;;;;;;2076688;28;20032;-64
2021/08/03 04:33:39;;;;;;;10.80;3.22;;;15.70;99.90;;;;;;2080457;28;20025;-63
2021/08/03 04:34:40;;;;;;;7.28;3.03;;;15.80;99.90;;;;;;2080362;28;20026;-63
2021/08/03 04:35:41;;;;;;;7.60;3.50;;;15.70;99.90;;;;;;2072354;28;20017;-63
2021/08/03 04:36:41;;;;;;;9.90;3.20;;;15.80;99.90;;;;;;2078040;28;20029;-63
2021/08/03 04:37:45;;;;;;;9.13;4.18;;;15.80;99.90;;;;;;2080556;28;20017;-64
2021/08/03 04:38:45;;;;;;;13.70;4.07;;;15.70;99.90;;;;;;2080238;28;20025;-63
2021/08/03 04:39:46;;;;;;;12.15;3.60;;;15.70;99.90;;;;;;2081736;28;20033;-63
2021/08/03 04:40:47;;;;;;;9.97;3.17;;;15.70;99.90;;;;;;2076204;28;21724;-64
2021/08/03 04:41:48;;;;;;;10.98;3.33;;;15.80;99.90;;;;;;2079693;28;20289;-63
2021/08/03 04:42:49;;;;;;;10.95;3.00;;;15.80;99.90;;;;;;2073989;28;20486;-63
2021/08/03 04:43:49;;;;;;;10.17;3.40;;;15.70;99.90;;;;;;2074137;28;20034;-63
2021/08/03 04:44:50;;;;;;;8.73;3.38;;;15.70;99.90;;;;;;2077250;28;20291;-63
2021/08/03 04:45:51;;;;;;;8.18;4.05;;;15.70;99.90;;;;;;2081170;28;20040;-63
2021/08/03 04:46:52;;;;;;;11.88;3.50;;;15.70;99.90;;;;;;2080487;28;20553;-62
2021/08/03 04:47:53;;;;;;;14.05;3.15;;;15.70;99.90;;;;;;2072697;28;20014;-64
2021/08/03 04:48:54;;;;;;;9.80;2.92;;;15.60;99.90;;;;;;2074451;28;20101;-63
2021/08/03 04:49:54;;;;;;;3.88;2.58;;;15.60;99.90;;;;;;2076787;28;20377;-64
2021/08/03 04:50:55;;;;;;;6.20;3.20;;;15.60;99.90;;;;;;2081077;28;20520;-62
2021/08/03 04:51:56;;;;;;;11.60;2.90;;;15.70;99.90;;;;;;2076002;28;20022;-63
2021/08/03 04:52:56;;;;;;;9.02;3.50;;;15.60;99.90;;;;;;2080115;28;20029;-63
2021/08/03 04:53:57;;;;;;;5.25;3.25;;;15.60;99.90;;;;;;2078539;28;20052;-63
2021/08/03 04:54:58;;;;;;;9.57;3.20;;;15.60;99.90;;;;;;2077722;28;20064;-63
2021/08/03 04:55:59;;;;;;;9.93;3.30;;;15.60;99.90;;;;;;2081096;28;20052;-63
2021/08/03 04:57:00;;;;;;;15.10;4.23;;;15.60;99.90;;;;;;2077866;28;20033;-63
2021/08/03 04:58:00;;;;;;;9.32;3.10;;;15.60;99.90;;;;;;2078147;28;20300;-65
2021/08/03 04:59:01;;;;;;;11.70;3.20;;;15.60;99.90;;;;;;2078102;28;20100;-63
2021/08/03 05:00:06;;;;;;;14.60;4.07;;;15.60;99.90;;;;;;2080675;28;20021;-63
2021/08/03 05:01:07;;;;;;;7.40;3.03;;;15.60;99.90;;;;;;2079019;28;20026;-63
2021/08/03 05:02:08;;;;;;;7.43;2.90;;;15.70;99.90;;;;;;2080263;28;20046;-63
2021/08/03 05:03:10;;;;;;;7.97;3.55;;;15.70;99.90;;;;;;2080740;28;20072;-63
2021/08/03 05:04:10;;;;;;;12.15;3.50;;;15.70;99.90;;;;;;2077226;28;20025;-63
2021/08/03 05:05:11;;;;;;;7.22;3.25;;;15.70;99.90;;;;;;2079951;28;20037;-63
2021/08/03 05:06:12;;;;;;;5.97;3.40;;;15.80;99.90;;;;;;2079578;28;20211;-63
2021/08/03 05:07:13;;;;;;;11.32;3.60;;;15.80;99.90;;;;;;2079721;28;20021;-63
2021/08/03 05:08:14;;;;;;;14.55;3.65;;;15.80;99.90;;;;;;2072648;28;20417;-63
2021/08/03 05:09:15;;;;;;;8.15;3.10;;;15.80;99.90;;;;;;2080663;28;20025;-63
2021/08/03 05:10:15;;;;;;;12.75;3.20;;;15.80;99.90;;;;;;2080801;28;20095;-63
2021/08/03 05:11:16;;;;;;;8.25;2.85;;;15.80;99.90;;;;;;2075796;28;20082;-63
2021/08/03 05:12:17;;;;;;;10.35;3.17;;;15.80;99.90;;;;;;2074787;28;20029;-63
2021/08/03 05:13:17;;;;;;;6.10;2.80;;;15.90;99.90;;;;;;2080746;28;20032;-63
2021/08/03 05:14:18;;;;;;;6.90;3.00;;;15.90;99.90;;;;;;2079708;28;20036;-63
2021/08/03 05:15:19;;;;;;;11.27;2.92;;;15.90;99.90;;;;;;2080010;28;20036;-62
2021/08/03 05:16:20;;;;;;;11.07;3.05;;;15.90;99.90;;;;;;2080306;28;20026;-63
2021/08/03 05:17:20;;;;;;;8.02;3.42;;;15.90;99.90;;;;;;2077416;28;20034;-63
2021/08/03 05:18:21;;;;;;;7.03;3.35;;;15.90;99.90;;;;;;2078959;28;20071;-63
2021/08/03 05:19:22;;;;;;;11.52;3.30;;;15.90;99.90;;;;;;2080523;28;20036;-63
2021/08/03 05:20:22;;;;;;;8.90;3.22;;;15.90;99.90;;;;;;2079941;28;20568;-63
2021/08/03 05:21:23;;;;;;;8.95;3.13;;;15.90;99.90;;;;;;2069386;28;20379;-62
2021/08/03 05:22:24;;;;;;;9.73;3.03;;;16.00;99.90;;;;;;2079171;28;20025;-63
2021/08/03 05:23:25;;;;;;;7.25;3.10;;;16.00;99.90;;;;;;2078671;28;20028;-62
2021/08/03 05:24:26;;;;;;;5.65;3.00;;;16.00;99.90;;;;;;2073100;28;20029;-63
2021/08/03 05:25:27;;;;;;;8.65;3.70;;;16.00;99.90;;;;;;2080803;28;20038;-63
2021/08/03 05:26:27;;;;;;;5.85;3.10;;;16.00;99.90;;;;;;2080496;28;20025;-63
2021/08/03 05:27:28;;;;;;;8.82;2.88;;;16.00;99.90;;;;;;2076796;28;20459;-63
2021/08/03 05:28:29;;;;;;;8.50;3.10;;;16.10;99.90;;;;;;2079620;28;20017;-63
2021/08/03 05:29:31;;;;;;;11.90;3.53;;;16.10;99.90;;;;;;2079477;28;20559;-63